sensor_id;sensor_type;location;lat;lon;timestamp;temperature;humidity
66610;DHT22;53468;48.276;14.416;2023-08-08T05:27:54;11.50;99.90
66610;DHT22;53468;48.276;14.416;2023-08-08T05:33:05;11.70;99.90
66610;DHT22;53468;48.276;14.416;2023-08-08T05:38:57;11.90;99.90
66610;DHT22;53468;48.276;14.416;2023-08-08T07:24:38;15.80;99.90
66610;DHT22;53468;48.276;14.416;2023-08-08T07:30:05;16.80;99.90
66610;DHT22;53468;48.276;14.416;2023-08-08T07:35:24;17.10;99.90
66610;DHT22;53468;48.276;14.416;2023-08-08T08:04:35;19.20;99.90
66610;DHT22;53468;48.276;14.416;2023-08-08T08:09:42;19.50;99.90
66610;DHT22;53468;48.276;14.416;2023-08-08T08:15:11;19.80;99.90
66610;DHT22;53468;48.276;14.416;2023-08-08T08:32:07;20.10;99.90
66610;DHT22;53468;48.276;14.416;2023-08-08T08:37:22;20.20;99.90
66610;DHT22;53468;48.276;14.416;2023-08-08T08:42:59;20.40;99.90
66610;DHT22;53468;48.276;14.416;2023-08-08T08:59:50;20.60;99.90
66610;DHT22;53468;48.276;14.416;2023-08-08T09:05:11;20.50;99.90
66610;DHT22;53468;48.276;14.416;2023-08-08T09:10:34;20.70;99.90
66610;DHT22;53468;48.276;14.416;2023-08-08T09:16:06;20.80;99.90
66610;DHT22;53468;48.276;14.416;2023-08-08T09:21:21;20.70;99.90
66610;DHT22;53468;48.276;14.416;2023-08-08T09:26:58;21.20;99.90
66610;DHT22;53468;48.276;14.416;2023-08-08T09:38:20;20.60;99.90
66610;DHT22;53468;48.276;14.416;2023-08-08T09:43:43;21.20;99.90
66610;DHT22;53468;48.276;14.416;2023-08-08T09:49:01;21.20;99.90
66610;DHT22;53468;48.276;14.416;2023-08-08T11:49:29;22.60;98.20
66610;DHT22;53468;48.276;14.416;2023-08-08T11:54:31;23.00;99.90
66610;DHT22;53468;48.276;14.416;2023-08-08T11:59:35;22.70;97.50
66610;DHT22;53468;48.276;14.416;2023-08-08T12:04:39;23.00;99.60
66610;DHT22;53468;48.276;14.416;2023-08-08T12:09:47;23.10;96.50
66610;DHT22;53468;48.276;14.416;2023-08-08T12:14:49;22.80;97.20
66610;DHT22;53468;48.276;14.416;2023-08-08T12:20:19;22.80;97.50
66610;DHT22;53468;48.276;14.416;2023-08-08T12:25:32;22.70;95.90
66610;DHT22;53468;48.276;14.416;2023-08-08T12:31:04;22.60;92.50
66610;DHT22;53468;48.276;14.416;2023-08-08T12:36:34;22.80;94.70
66610;DHT22;53468;48.276;14.416;2023-08-08T12:41:48;22.50;93.60
66610;DHT22;53468;48.276;14.416;2023-08-08T12:47:15;22.80;95.80
66610;DHT22;53468;48.276;14.416;2023-08-08T12:52:29;22.90;96.20
66610;DHT22;53468;48.276;14.416;2023-08-08T12:57:57;22.80;92.10
66610;DHT22;53468;48.276;14.416;2023-08-08T13:03:22;23.20;94.40
66610;DHT22;53468;48.276;14.416;2023-08-08T13:08:29;23.00;92.40
66610;DHT22;53468;48.276;14.416;2023-08-08T13:13:37;23.10;94.50
66610;DHT22;53468;48.276;14.416;2023-08-08T13:18:44;22.90;94.50
66610;DHT22;53468;48.276;14.416;2023-08-08T13:24:17;23.00;93.10
66610;DHT22;53468;48.276;14.416;2023-08-08T13:29:24;23.00;90.80
66610;DHT22;53468;48.276;14.416;2023-08-08T13:34:52;23.00;91.30
66610;DHT22;53468;48.276;14.416;2023-08-08T13:40:19;23.00;91.30
66610;DHT22;53468;48.276;14.416;2023-08-08T13:45:27;23.10;91.70
66610;DHT22;53468;48.276;14.416;2023-08-08T13:50:46;23.00;89.00
66610;DHT22;53468;48.276;14.416;2023-08-08T13:56:02;23.30;90.30
66610;DHT22;53468;48.276;14.416;2023-08-08T14:01:13;23.10;86.90
66610;DHT22;53468;48.276;14.416;2023-08-08T14:06:25;23.20;90.80
66610;DHT22;53468;48.276;14.416;2023-08-08T14:12:12;22.90;89.50
66610;DHT22;53468;48.276;14.416;2023-08-08T14:17:20;23.20;91.10
66610;DHT22;53468;48.276;14.416;2023-08-08T14:22:33;23.10;90.50
66610;DHT22;53468;48.276;14.416;2023-08-08T14:27:41;23.30;90.30
66610;DHT22;53468;48.276;14.416;2023-08-08T14:32:51;23.30;87.50
66610;DHT22;53468;48.276;14.416;2023-08-08T14:37:57;23.20;86.30
66610;DHT22;53468;48.276;14.416;2023-08-08T14:43:07;23.30;90.30
66610;DHT22;53468;48.276;14.416;2023-08-08T14:48:13;23.30;85.80
66610;DHT22;53468;48.276;14.416;2023-08-08T14:53:19;23.10;86.30
66610;DHT22;53468;48.276;14.416;2023-08-08T14:58:45;23.20;85.00
66610;DHT22;53468;48.276;14.416;2023-08-08T15:03:53;23.30;85.80
66610;DHT22;53468;48.276;14.416;2023-08-08T15:08:59;23.30;86.00
66610;DHT22;53468;48.276;14.416;2023-08-08T15:14:07;23.00;85.10
66610;DHT22;53468;48.276;14.416;2023-08-08T15:19:13;22.90;85.70
66610;DHT22;53468;48.276;14.416;2023-08-08T15:24:20;22.90;87.80
66610;DHT22;53468;48.276;14.416;2023-08-08T15:29:30;22.90;85.70
66610;DHT22;53468;48.276;14.416;2023-08-08T15:34:35;22.90;87.30
66610;DHT22;53468;48.276;14.416;2023-08-08T15:39:46;22.90;88.70
66610;DHT22;53468;48.276;14.416;2023-08-08T15:44:57;22.90;85.00
66610;DHT22;53468;48.276;14.416;2023-08-08T15:50:08;22.90;89.20
66610;DHT22;53468;48.276;14.416;2023-08-08T15:55:12;22.70;87.50
66610;DHT22;53468;48.276;14.416;2023-08-08T16:00:21;22.80;90.00
66610;DHT22;53468;48.276;14.416;2023-08-08T16:05:25;22.70;91.00
66610;DHT22;53468;48.276;14.416;2023-08-08T16:10:30;22.60;90.30
66610;DHT22;53468;48.276;14.416;2023-08-08T16:15:49;22.60;87.90
66610;DHT22;53468;48.276;14.416;2023-08-08T16:21:14;22.40;91.20
66610;DHT22;53468;48.276;14.416;2023-08-08T16:26:45;22.30;91.60
66610;DHT22;53468;48.276;14.416;2023-08-08T16:32:14;22.20;90.00
66610;DHT22;53468;48.276;14.416;2023-08-08T16:37:20;22.00;90.40
66610;DHT22;53468;48.276;14.416;2023-08-08T16:42:26;21.90;91.10
66610;DHT22;53468;48.276;14.416;2023-08-08T16:47:35;21.90;88.80
66610;DHT22;53468;48.276;14.416;2023-08-08T16:53:04;21.70;91.10
66610;DHT22;53468;48.276;14.416;2023-08-08T16:58:13;21.40;90.80
66610;DHT22;53468;48.276;14.416;2023-08-08T17:03:40;21.40;89.90
66610;DHT22;53468;48.276;14.416;2023-08-08T17:08:55;21.30;92.70
66610;DHT22;53468;48.276;14.416;2023-08-08T17:20:06;21.10;89.20
66610;DHT22;53468;48.276;14.416;2023-08-08T17:25:10;21.00;92.00
66610;DHT22;53468;48.276;14.416;2023-08-08T17:30:19;21.00;91.20
66610;DHT22;53468;48.276;14.416;2023-08-08T17:35:41;20.90;92.90
66610;DHT22;53468;48.276;14.416;2023-08-08T17:41:10;20.80;96.00
66610;DHT22;53468;48.276;14.416;2023-08-08T17:46:35;20.40;98.20
66610;DHT22;53468;48.276;14.416;2023-08-08T17:52:26;20.10;98.40
66610;DHT22;53468;48.276;14.416;2023-08-08T17:57:53;19.90;99.90
66610;DHT22;53468;48.276;14.416;2023-08-08T18:03:53;19.70;99.90
66610;DHT22;53468;48.276;14.416;2023-08-08T19:45:08;16.80;99.90
66610;DHT22;53468;48.276;14.416;2023-08-08T19:50:53;16.70;99.90
66610;DHT22;53468;48.276;14.416;2023-08-08T20:14:14;16.00;99.90
66610;DHT22;53468;48.276;14.416;2023-08-08T20:25:55;15.70;99.90
66610;DHT22;53468;48.276;14.416;2023-08-08T21:23:07;15.10;99.90
66610;DHT22;53468;48.276;14.416;2023-08-08T21:28:17;15.20;99.90
66610;DHT22;53468;48.276;14.416;2023-08-08T21:33:55;15.00;99.90
66610;DHT22;53468;48.276;14.416;2023-08-08T21:39:17;14.90;99.90
66610;DHT22;53468;48.276;14.416;2023-08-08T21:44:38;14.80;99.90
66610;DHT22;53468;48.276;14.416;2023-08-08T21:50:12;14.90;99.90
66610;DHT22;53468;48.276;14.416;2023-08-08T22:14:13;15.10;99.90
66610;DHT22;53468;48.276;14.416;2023-08-08T22:20:08;15.20;99.90
66610;DHT22;53468;48.276;14.416;2023-08-08T22:25:40;15.20;99.90
66610;DHT22;53468;48.276;14.416;2023-08-08T22:31:24;15.20;99.90
66610;DHT22;53468;48.276;14.416;2023-08-08T22:36:47;15.20;99.90
66610;DHT22;53468;48.276;14.416;2023-08-08T22:42:41;15.20;99.90
66610;DHT22;53468;48.276;14.416;2023-08-08T22:48:12;15.20;99.90
66610;DHT22;53468;48.276;14.416;2023-08-08T22:53:33;15.20;99.90
66610;DHT22;53468;48.276;14.416;2023-08-08T22:59:20;15.20;99.90
66610;DHT22;53468;48.276;14.416;2023-08-08T23:05:49;15.30;99.90
66610;DHT22;53468;48.276;14.416;2023-08-08T23:12:08;15.20;99.90
66610;DHT22;53468;48.276;14.416;2023-08-08T23:18:12;15.20;99.90
66610;DHT22;53468;48.276;14.416;2023-08-08T23:23:49;15.20;99.90
66610;DHT22;53468;48.276;14.416;2023-08-08T23:29:23;15.20;99.90
66610;DHT22;53468;48.276;14.416;2023-08-08T23:35:23;15.20;99.90
66610;DHT22;53468;48.276;14.416;2023-08-08T23:47:05;15.20;99.90
66610;DHT22;53468;48.276;14.416;2023-08-08T23:52:29;15.20;99.90
66610;DHT22;53468;48.276;14.416;2023-08-08T23:58:47;15.20;99.90
